Relevés horaires Schaffen (Belgique)


Relevés horaires à Schaffen - Mardi 17 Mars 2020
Heure UTC1 Température [°C] Vent [km/h] Hum. [%] Pres.4 [hPa] Visi. [Km] Nébu. [octa] Préc.5 [mm] Cond.
2m. Res. Ros. Dir.2 Vit. Moy. Raf.3
23:00 7.8 7.8 0.5 NNO 1.9 -- 5.6 60 1029.7(-0.4/3h) 20 -- -- --
22:00 9.1 9.1 -0.2 SO 3.7 -- 5.6 52 1030.2(0.1/3h) 20 -- -- --
21:00 9.8 9.8 -0.3 NNO 1.9 -- 5.6 49 1030.4(0.4/3h) 20 -- -- --
20:00 10.6 10.6 -0.6 SO 3.7 -- 5.6 46 1030(0.5/3h) 20 -- -- --
19:00 10.9 10.9 -1.4 OSO 3.7 -- 5.6 42 1030(0.3/3h) 20 -- -- --
18:00 11.6 11.6 -0.7 NNO 1.9 -- 11.1 42 1029.7(0.0/3h) 20 -- -- --
17:00 13.1 13.1 -2.3 SSO 5.6 -- 11.1 34 1029.5(-0.6/3h) 20 -- -- --
16:00 14.1 14.1 -2.4 SO 5.6 -- 9.3 32 1029.7(-0.8/3h) 20 -- -- --
15:00 14.5 14.5 -4.1 SO 5.6 -- 11.1 27 1029.7(-1.3/3h) 20 -- -- --
14:00 13.9 13.7 -1.4 SSO 7.4 -- 11.1 35 1030(-1.2/3h) 20 -- -- --
13:00 13.1 13.1 -0.7 SSO 5.6 -- 11.1 38 1030.5(-0.7/3h) 20 -- -- --
12:00 12.3 12.2 0.6 SO 5.6 -- 11.1 45 1031.2(0.1/3h) 20 -- -- --
11:00 11.1 10.8 0.6 OSO 5.6 -- 11.1 48 1031.5(0.4/3h) 20 -- -- --
10:00 10.3 9.9 2.7 SO 5.6 -- 9.3 59 1031.2(0.9/3h) 20 -- -- --
09:00 8.4 7.7 2.9 SO 5.6 -- 9.3 68 1031.2(1.4/3h) 19 -- -- --
08:00 6.9 6 3.6 OSO 5.6 -- 9.3 79 1031(1.9/3h) 16 -- -- --
07:00 5.0 5.0 2.8 OSO 3.7 -- 5.6 86 1030.5(1.8/3h) 13 -- -- --
06:00 4.8 4.8 2.7 NNO 3.7 -- 5.6 86 1029.9(1.6/3h) 17 -- -- --
05:00 5.0 5.0 3.3 NNO 1.9 -- 3.7 89 1029.2(1.3/3h) 16 -- -- --
04:00 5.8 5.8 3.3 NNO 1.9 -- 3.7 84 1028.7(0.8/3h) 18 -- -- --
03:00 6.8 6.8 3.6 NNO 1.9 -- 5.6 80 1028.2(0.6/3h) 19 -- -- --
02:00 7.1 7.1 3.5 NNO 1.9 -- 3.7 78 1027.7(0.4/3h) 20 -- -- --
01:00 8.0 8.0 3.8 NNO 1.9 -- 5.6 75 1027.7(1.0/3h) 20 -- -- --
00:00 8.5 8.5 3.8 O 3.7 -- 7.4 72 1027.5(1.5/3h) 20 -- -- --

1 Coordinated Universal Time. Actuellement il est 23:00 locale et 22:00 UTC.

2 Le vent souffle depuis la direction indiquée vers la direction oposée.

3 Les rafales max. sont disponible 40 min après l'heure du relevé.

4 Pour les stations d'altitude (plus de 600m) le géopotentiel du niveau le plus proche de la pression obligatoire est indiqué.

5 Les stations disposant d'un diffuseur peuvent indiquer "trace". Cela signifie que des précipitations ont touchés le sol mais que la quantité est inférieure à 0.1 mm.

Récapitulatif de la journée
Température [°C] Vent [km/h] Ensoleillement4 [h] Precipitations totale5 [mm] Pression [Hpa]
Min1 Max.2 Moy.3 Max. Min Max.
4.6 15.0 0 11.1 0 h 0 min 0 1027.5 1031.5

1 Température minimale relevée entre 18:00 UTC la veille et 18:00 UTC le jour donné.

2 Température maximale relevée entre 06:00 UTC le jour donné et 06:00 UTC le lendemain.

3 Vent moyen de la journée basé sur les relevés horaires.

4 Ensoleillement en heures relevé entre 06:00 UTC la veille et 06:00 UTC le jour donné.

5 Précipitations totales tombées entre 06:00 UTC la jour donné et 06:00 UTC le lendemain.

Graphiques horaires